sensor_id;sensor_type;location;lat;lon;timestamp;temperature;humidity
13596;DHT22;6868;52.544;13.416;2023-08-08T20:38:09;13.10;99.90
13596;DHT22;6868;52.544;13.416;2023-08-08T20:40:36;15.10;99.90
13596;DHT22;6868;52.544;13.416;2023-08-08T20:43:04;14.90;99.90
13596;DHT22;6868;52.544;13.416;2023-08-08T20:45:32;14.80;99.90
13596;DHT22;6868;52.544;13.416;2023-08-08T20:48:00;14.70;99.90
13596;DHT22;6868;52.544;13.416;2023-08-08T20:50:27;14.60;99.90
13596;DHT22;6868;52.544;13.416;2023-08-08T20:52:53;14.80;99.90
13596;DHT22;6868;52.544;13.416;2023-08-08T20:55:22;14.80;99.90
13596;DHT22;6868;52.544;13.416;2023-08-08T20:57:50;14.80;99.90
13596;DHT22;6868;52.544;13.416;2023-08-08T21:00:19;14.90;99.90
13596;DHT22;6868;52.544;13.416;2023-08-08T21:02:46;14.90;99.90
13596;DHT22;6868;52.544;13.416;2023-08-08T21:05:14;15.00;99.90
13596;DHT22;6868;52.544;13.416;2023-08-08T21:07:40;14.90;99.90
13596;DHT22;6868;52.544;13.416;2023-08-08T21:10:08;14.90;99.90
13596;DHT22;6868;52.544;13.416;2023-08-08T21:12:36;14.90;99.90
13596;DHT22;6868;52.544;13.416;2023-08-08T21:15:04;14.80;99.90
13596;DHT22;6868;52.544;13.416;2023-08-08T21:17:31;14.80;99.90
13596;DHT22;6868;52.544;13.416;2023-08-08T21:19:58;14.80;99.90
13596;DHT22;6868;52.544;13.416;2023-08-08T21:22:26;14.70;99.90
13596;DHT22;6868;52.544;13.416;2023-08-08T21:24:54;14.60;99.90
13596;DHT22;6868;52.544;13.416;2023-08-08T21:27:21;14.60;99.90
13596;DHT22;6868;52.544;13.416;2023-08-08T21:29:49;14.50;99.90
13596;DHT22;6868;52.544;13.416;2023-08-08T21:32:17;14.30;99.90
13596;DHT22;6868;52.544;13.416;2023-08-08T21:34:45;14.30;99.90
13596;DHT22;6868;52.544;13.416;2023-08-08T21:37:11;14.40;99.90
13596;DHT22;6868;52.544;13.416;2023-08-08T21:39:38;14.40;99.90
13596;DHT22;6868;52.544;13.416;2023-08-08T21:42:05;14.30;99.90
13596;DHT22;6868;52.544;13.416;2023-08-08T21:44:33;14.30;99.90
13596;DHT22;6868;52.544;13.416;2023-08-08T21:47:02;14.30;99.90
13596;DHT22;6868;52.544;13.416;2023-08-08T21:49:28;14.30;99.90
13596;DHT22;6868;52.544;13.416;2023-08-08T21:51:55;14.30;99.90
13596;DHT22;6868;52.544;13.416;2023-08-08T21:54:22;14.30;99.90
13596;DHT22;6868;52.544;13.416;2023-08-08T21:56:50;14.30;99.90
13596;DHT22;6868;52.544;13.416;2023-08-08T21:59:23;14.40;99.90
13596;DHT22;6868;52.544;13.416;2023-08-08T22:01:50;14.30;99.90
13596;DHT22;6868;52.544;13.416;2023-08-08T22:04:19;14.40;99.90
13596;DHT22;6868;52.544;13.416;2023-08-08T22:06:47;14.50;99.90
13596;DHT22;6868;52.544;13.416;2023-08-08T22:09:15;14.50;99.90
13596;DHT22;6868;52.544;13.416;2023-08-08T22:11:42;14.60;99.90
13596;DHT22;6868;52.544;13.416;2023-08-08T22:14:09;14.60;99.90
13596;DHT22;6868;52.544;13.416;2023-08-08T22:16:36;14.60;99.90
13596;DHT22;6868;52.544;13.416;2023-08-08T22:19:04;14.70;99.90
13596;DHT22;6868;52.544;13.416;2023-08-08T22:21:34;14.80;99.90
13596;DHT22;6868;52.544;13.416;2023-08-08T22:24:01;14.70;99.90
13596;DHT22;6868;52.544;13.416;2023-08-08T22:26:28;14.70;99.90
13596;DHT22;6868;52.544;13.416;2023-08-08T22:28:55;14.80;99.90
13596;DHT22;6868;52.544;13.416;2023-08-08T22:31:22;14.70;99.90
13596;DHT22;6868;52.544;13.416;2023-08-08T22:33:48;14.80;99.90
13596;DHT22;6868;52.544;13.416;2023-08-08T22:36:15;14.70;99.90
13596;DHT22;6868;52.544;13.416;2023-08-08T22:38:44;14.60;99.90
13596;DHT22;6868;52.544;13.416;2023-08-08T22:41:11;14.70;99.90
13596;DHT22;6868;52.544;13.416;2023-08-08T22:43:38;14.80;99.90
13596;DHT22;6868;52.544;13.416;2023-08-08T22:46:05;14.70;99.90
13596;DHT22;6868;52.544;13.416;2023-08-08T22:48:32;14.70;99.90
13596;DHT22;6868;52.544;13.416;2023-08-08T22:50:59;14.70;99.90
13596;DHT22;6868;52.544;13.416;2023-08-08T22:53:26;14.60;99.90
13596;DHT22;6868;52.544;13.416;2023-08-08T22:55:55;14.50;99.90
13596;DHT22;6868;52.544;13.416;2023-08-08T22:58:23;14.40;99.90
13596;DHT22;6868;52.544;13.416;2023-08-08T23:00:50;14.30;99.90
13596;DHT22;6868;52.544;13.416;2023-08-08T23:03:18;14.30;99.90
13596;DHT22;6868;52.544;13.416;2023-08-08T23:05:45;14.20;99.90
13596;DHT22;6868;52.544;13.416;2023-08-08T23:08:16;14.20;99.90
13596;DHT22;6868;52.544;13.416;2023-08-08T23:10:50;14.20;99.90
13596;DHT22;6868;52.544;13.416;2023-08-08T23:13:21;14.20;99.90
13596;DHT22;6868;52.544;13.416;2023-08-08T23:15:48;14.20;99.90
13596;DHT22;6868;52.544;13.416;2023-08-08T23:18:15;14.30;99.90
13596;DHT22;6868;52.544;13.416;2023-08-08T23:20:42;14.30;99.90
13596;DHT22;6868;52.544;13.416;2023-08-08T23:23:10;14.30;99.90
13596;DHT22;6868;52.544;13.416;2023-08-08T23:25:37;14.30;99.90
13596;DHT22;6868;52.544;13.416;2023-08-08T23:28:04;14.30;99.90
13596;DHT22;6868;52.544;13.416;2023-08-08T23:30:34;14.30;99.90
13596;DHT22;6868;52.544;13.416;2023-08-08T23:33:01;14.30;99.90
13596;DHT22;6868;52.544;13.416;2023-08-08T23:35:28;14.50;99.90
13596;DHT22;6868;52.544;13.416;2023-08-08T23:37:55;14.50;99.90
13596;DHT22;6868;52.544;13.416;2023-08-08T23:40:21;14.50;99.90
13596;DHT22;6868;52.544;13.416;2023-08-08T23:42:48;14.50;99.90
13596;DHT22;6868;52.544;13.416;2023-08-08T23:45:15;14.40;99.90
13596;DHT22;6868;52.544;13.416;2023-08-08T23:47:45;14.40;99.90
13596;DHT22;6868;52.544;13.416;2023-08-08T23:50:13;14.40;99.90
13596;DHT22;6868;52.544;13.416;2023-08-08T23:52:41;14.30;99.90
13596;DHT22;6868;52.544;13.416;2023-08-08T23:55:08;14.30;99.90
13596;DHT22;6868;52.544;13.416;2023-08-08T23:57:35;14.30;99.90
